JLY1182 SBGL-SAEZ
Flight info
| Callsign | JLY1182 |
|---|---|
| Flight time | 2h 57m |
| Altitude | 38000 |
| Route | BITAK UN857 NELOX UM534 DADUT UN741 PAPIX PAPIX7A |
| Aircraft | B77W/H-SDE1E2E3FGHIJ2J3J4J5M1RWXY/LB1D1 |
Departure
| Time | 2026-05-04 23:34 |
|---|---|
| Airport | Rio Galeão – Tom Jobim International Airport (SBGL) |
Arrival
| Time | 2026-05-05 02:31 |
|---|---|
| Airport | Ezeiza International Airport - Ministro Pistarini (SAEZ) |
| Time | Latitude | Longitude | Altitude | Speed | Heading |
|---|---|---|---|---|---|
| 2026-05-04 23:16 | -22.81610 | -43.24507 | 27 ft | 0 kts | 343° |
| 2026-05-04 23:25 | -22.81626 | -43.24503 | 25 ft | 4 kts | 357° |
| 2026-05-04 23:25 | -22.81650 | -43.24508 | 25 ft | 4 kts | 43° |
| 2026-05-04 23:25 | -22.81665 | -43.24531 | 25 ft | 4 kts | 53° |
| 2026-05-04 23:26 | -22.81685 | -43.24548 | 24 ft | 4 kts | 32° |
| 2026-05-04 23:26 | -22.81707 | -43.24564 | 26 ft | 4 kts | 44° |
| 2026-05-04 23:26 | -22.81723 | -43.24581 | 24 ft | 4 kts | 8° |
| 2026-05-04 23:26 | -22.81746 | -43.24582 | 25 ft | 4 kts | 343° |
| 2026-05-04 23:27 | -22.81767 | -43.24567 | 25 ft | 4 kts | 316° |
| 2026-05-04 23:27 | -22.81781 | -43.24555 | 26 ft | 1 kts | 328° |
| 2026-05-04 23:27 | -22.81783 | -43.24554 | 26 ft | 0 kts | 328° |
| 2026-05-04 23:28 | -22.81753 | -43.24582 | 25 ft | 19 kts | 312° |
| 2026-05-04 23:29 | -22.81662 | -43.24717 | 26 ft | 20 kts | 305° |
| 2026-05-04 23:29 | -22.81576 | -43.24848 | 26 ft | 22 kts | 310° |
| 2026-05-04 23:29 | -22.81496 | -43.24987 | 26 ft | 22 kts | 283° |
| 2026-05-04 23:29 | -22.81526 | -43.25147 | 29 ft | 22 kts | 247° |
| 2026-05-04 23:30 | -22.81525 | -43.25305 | 27 ft | 22 kts | 297° |
| 2026-05-04 23:30 | -22.81441 | -43.25443 | 29 ft | 22 kts | 305° |
| 2026-05-04 23:30 | -22.81352 | -43.25576 | 29 ft | 22 kts | 306° |
| 2026-05-04 23:30 | -22.81263 | -43.25710 | 27 ft | 22 kts | 306° |
| 2026-05-04 23:31 | -22.81169 | -43.25852 | 26 ft | 20 kts | 306° |
| 2026-05-04 23:31 | -22.81054 | -43.25896 | 27 ft | 20 kts | 22° |
| 2026-05-04 23:31 | -22.80939 | -43.25817 | 28 ft | 20 kts | 35° |
| 2026-05-04 23:31 | -22.80827 | -43.25731 | 29 ft | 20 kts | 35° |
| 2026-05-04 23:32 | -22.80716 | -43.25646 | 34 ft | 20 kts | 36° |
| 2026-05-04 23:32 | -22.80604 | -43.25558 | 34 ft | 20 kts | 33° |
| 2026-05-04 23:32 | -22.80475 | -43.25575 | 35 ft | 20 kts | 329° |
| 2026-05-04 23:32 | -22.80352 | -43.25591 | 32 ft | 20 kts | 27° |
| 2026-05-04 23:33 | -22.80234 | -43.25501 | 30 ft | 19 kts | 37° |
| 2026-05-04 23:33 | -22.80172 | -43.25429 | 30 ft | 9 kts | 66° |
| 2026-05-04 23:33 | -22.80167 | -43.25414 | 30 ft | 0 kts | 68° |
| 2026-05-04 23:33 | -22.80102 | -43.25178 | 30 ft | 89 kts | 74° |
| 2026-05-04 23:34 | -22.79823 | -43.24114 | 48 ft | 201 kts | 75° |
| 2026-05-04 23:34 | -22.79388 | -43.22441 | 641 ft | 251 kts | 74° |
| 2026-05-04 23:34 | -22.78882 | -43.20588 | 1798 ft | 246 kts | 73° |
| 2026-05-04 23:34 | -22.78405 | -43.18901 | 2367 ft | 226 kts | 73° |
| 2026-05-04 23:35 | -22.78066 | -43.17257 | 2478 ft | 224 kts | 78° |
| 2026-05-04 23:35 | -22.77780 | -43.15562 | 2493 ft | 232 kts | 78° |
| 2026-05-04 23:35 | -22.77469 | -43.13832 | 2624 ft | 236 kts | 77° |
| 2026-05-04 23:35 | -22.77130 | -43.12080 | 2790 ft | 238 kts | 77° |
| 2026-05-04 23:36 | -22.76774 | -43.10321 | 2975 ft | 240 kts | 76° |
| 2026-05-04 23:36 | -22.76407 | -43.08555 | 3151 ft | 241 kts | 76° |
| 2026-05-04 23:36 | -22.76035 | -43.06782 | 3333 ft | 242 kts | 75° |
| 2026-05-04 23:36 | -22.75682 | -43.04997 | 3461 ft | 242 kts | 82° |
| 2026-05-04 23:37 | -22.75885 | -43.03208 | 3499 ft | 249 kts | 113° |
| 2026-05-04 23:37 | -22.76957 | -43.01741 | 3616 ft | 252 kts | 142° |
| 2026-05-04 23:37 | -22.78448 | -43.00747 | 3721 ft | 253 kts | 150° |
| 2026-05-04 23:37 | -22.79968 | -42.99793 | 3898 ft | 252 kts | 149° |
| 2026-05-04 23:38 | -22.81480 | -42.98833 | 4072 ft | 252 kts | 149° |
| 2026-05-04 23:38 | -22.83001 | -42.97867 | 4173 ft | 255 kts | 150° |
| 2026-05-04 23:38 | -22.84625 | -42.97141 | 4197 ft | 254 kts | 175° |
| 2026-05-04 23:38 | -22.86348 | -42.97439 | 4246 ft | 253 kts | 209° |
| 2026-05-04 23:39 | -22.87782 | -42.98531 | 4269 ft | 253 kts | 220° |
| 2026-05-04 23:39 | -22.89174 | -42.99737 | 4343 ft | 259 kts | 220° |
| 2026-05-04 23:39 | -22.90601 | -43.00971 | 4422 ft | 265 kts | 220° |
| 2026-05-04 23:39 | -22.92058 | -43.02232 | 4523 ft | 270 kts | 220° |
| 2026-05-04 23:40 | -22.93530 | -43.03503 | 4696 ft | 271 kts | 220° |
| 2026-05-04 23:40 | -22.95008 | -43.04780 | 4839 ft | 272 kts | 220° |
| 2026-05-04 23:40 | -22.96485 | -43.06055 | 5040 ft | 271 kts | 220° |
| 2026-05-04 23:40 | -22.97947 | -43.07316 | 5300 ft | 266 kts | 220° |
| 2026-05-04 23:41 | -22.99392 | -43.08563 | 5517 ft | 265 kts | 220° |
| 2026-05-04 23:41 | -23.00829 | -43.09808 | 5723 ft | 263 kts | 221° |
| 2026-05-04 23:41 | -23.02256 | -43.11056 | 5874 ft | 265 kts | 220° |
| 2026-05-04 23:41 | -23.03691 | -43.12311 | 6090 ft | 262 kts | 220° |
| 2026-05-04 23:42 | -23.05116 | -43.13559 | 6171 ft | 266 kts | 220° |
| 2026-05-04 23:42 | -23.06566 | -43.14829 | 6265 ft | 268 kts | 220° |
| 2026-05-04 23:42 | -23.07990 | -43.16074 | 6614 ft | 260 kts | 220° |
| 2026-05-04 23:42 | -23.09386 | -43.17297 | 6721 ft | 262 kts | 220° |
| 2026-05-04 23:43 | -23.10792 | -43.18528 | 6942 ft | 259 kts | 220° |
| 2026-05-04 23:43 | -23.12201 | -43.19762 | 7066 ft | 260 kts | 220° |
| 2026-05-04 23:43 | -23.13616 | -43.21002 | 7137 ft | 262 kts | 220° |
| 2026-05-04 23:43 | -23.15034 | -43.22245 | 7269 ft | 263 kts | 220° |
| 2026-05-04 23:44 | -23.16463 | -43.23497 | 7351 ft | 266 kts | 220° |
| 2026-05-04 23:44 | -23.17908 | -43.24764 | 7509 ft | 265 kts | 220° |
| 2026-05-04 23:44 | -23.19343 | -43.26022 | 7620 ft | 266 kts | 220° |
| 2026-05-04 23:44 | -23.20785 | -43.27287 | 7809 ft | 264 kts | 220° |
| 2026-05-04 23:45 | -23.22197 | -43.28525 | 8080 ft | 260 kts | 220° |
| 2026-05-04 23:45 | -23.23613 | -43.29769 | 8137 ft | 263 kts | 220° |
| 2026-05-04 23:45 | -23.25034 | -43.31016 | 8300 ft | 261 kts | 220° |
| 2026-05-04 23:45 | -23.26462 | -43.32271 | 8318 ft | 266 kts | 220° |
| 2026-05-04 23:46 | -23.27899 | -43.33534 | 8418 ft | 268 kts | 220° |
| 2026-05-04 23:46 | -23.29339 | -43.34798 | 8613 ft | 265 kts | 220° |
| 2026-05-04 23:46 | -23.30780 | -43.36065 | 8724 ft | 265 kts | 220° |
| 2026-05-04 23:46 | -23.32217 | -43.37328 | 8867 ft | 265 kts | 220° |
| 2026-05-04 23:47 | -23.33650 | -43.38588 | 8975 ft | 266 kts | 220° |
| 2026-05-04 23:47 | -23.35103 | -43.39842 | 9136 ft | 264 kts | 220° |
| 2026-05-04 23:47 | -23.36549 | -43.41080 | 9253 ft | 266 kts | 219° |
| 2026-05-04 23:47 | -23.38019 | -43.42338 | 9271 ft | 270 kts | 219° |
| 2026-05-04 23:48 | -23.39473 | -43.43604 | 9435 ft | 267 kts | 221° |
| 2026-05-04 23:48 | -23.40869 | -43.44954 | 9496 ft | 270 kts | 223° |
| 2026-05-04 23:48 | -23.42242 | -43.46324 | 9650 ft | 268 kts | 224° |
| 2026-05-04 23:48 | -23.43611 | -43.47695 | 9847 ft | 265 kts | 224° |
| 2026-05-04 23:49 | -23.44956 | -43.49039 | 10086 ft | 259 kts | 223° |
| 2026-05-04 23:49 | -23.46253 | -43.50330 | 10330 ft | 253 kts | 223° |
| 2026-05-04 23:49 | -23.47539 | -43.51608 | 10560 ft | 247 kts | 223° |
| 2026-05-04 23:49 | -23.48790 | -43.52849 | 10792 ft | 239 kts | 223° |
| 2026-05-04 23:50 | -23.50000 | -43.54047 | 11044 ft | 231 kts | 223° |
| 2026-05-04 23:50 | -23.51171 | -43.55207 | 11270 ft | 223 kts | 223° |
| 2026-05-04 23:50 | -23.52295 | -43.56319 | 11515 ft | 213 kts | 224° |
| 2026-05-04 23:50 | -23.53365 | -43.57377 | 11685 ft | 206 kts | 224° |
| 2026-05-04 23:51 | -23.54449 | -43.58451 | 11856 ft | 216 kts | 224° |
| 2026-05-04 23:51 | -23.55632 | -43.59623 | 12095 ft | 245 kts | 223° |
| 2026-05-04 23:51 | -23.56971 | -43.60949 | 12352 ft | 276 kts | 223° |
| 2026-05-04 23:51 | -23.58476 | -43.62440 | 12605 ft | 307 kts | 223° |
| 2026-05-04 23:52 | -23.60139 | -43.64087 | 12832 ft | 338 kts | 223° |
| 2026-05-04 23:52 | -23.61952 | -43.65883 | 13129 ft | 363 kts | 223° |
| 2026-05-04 23:52 | -23.63840 | -43.67750 | 14046 ft | 370 kts | 223° |
| 2026-05-04 23:52 | -23.65773 | -43.69664 | 14804 ft | 379 kts | 223° |
| 2026-05-04 23:53 | -23.67747 | -43.71620 | 15589 ft | 387 kts | 223° |
| 2026-05-04 23:53 | -23.69733 | -43.73587 | 16655 ft | 387 kts | 224° |
| 2026-05-04 23:53 | -23.71735 | -43.75572 | 17497 ft | 393 kts | 224° |
| 2026-05-04 23:53 | -23.73785 | -43.77607 | 18209 ft | 402 kts | 224° |
| 2026-05-04 23:54 | -23.75877 | -43.79686 | 18863 ft | 411 kts | 224° |
| 2026-05-04 23:54 | -23.77995 | -43.81790 | 19655 ft | 413 kts | 224° |
| 2026-05-04 23:54 | -23.80127 | -43.83907 | 20520 ft | 415 kts | 224° |
| 2026-05-04 23:54 | -23.82271 | -43.86037 | 21270 ft | 419 kts | 224° |
| 2026-05-04 23:55 | -23.84443 | -43.88198 | 21926 ft | 426 kts | 224° |
| 2026-05-04 23:55 | -23.85896 | -43.89645 | 22415 ft | 428 kts | 224° |
| 2026-05-04 23:55 | -23.91100 | -43.94826 | 24039 ft | 438 kts | 224° |
| 2026-05-04 23:56 | -23.92593 | -43.96314 | 24408 ft | 441 kts | 224° |
| 2026-05-04 23:56 | -23.94868 | -43.98581 | 25011 ft | 444 kts | 224° |
| 2026-05-04 23:56 | -23.97156 | -44.00862 | 25640 ft | 446 kts | 224° |
| 2026-05-04 23:56 | -23.99457 | -44.03158 | 26246 ft | 449 kts | 224° |
| 2026-05-04 23:57 | -24.02518 | -44.06235 | 27019 ft | 453 kts | 225° |
| 2026-05-04 23:57 | -24.04051 | -44.07850 | 27430 ft | 454 kts | 226° |
| 2026-05-04 23:57 | -24.06298 | -44.10287 | 28007 ft | 456 kts | 227° |
| 2026-05-04 23:57 | -24.08544 | -44.12756 | 28561 ft | 459 kts | 227° |
| 2026-05-04 23:58 | -24.10804 | -44.15240 | 29061 ft | 462 kts | 227° |
| 2026-05-04 23:58 | -24.13079 | -44.17734 | 29533 ft | 465 kts | 227° |
| 2026-05-04 23:58 | -24.15346 | -44.20207 | 29958 ft | 468 kts | 227° |
| 2026-05-04 23:58 | -24.17661 | -44.22725 | 30406 ft | 469 kts | 227° |
| 2026-05-04 23:59 | -24.19972 | -44.25234 | 30970 ft | 466 kts | 227° |
| 2026-05-04 23:59 | -24.22260 | -44.27715 | 31637 ft | 460 kts | 227° |
| 2026-05-04 23:59 | -24.24528 | -44.30178 | 32211 ft | 458 kts | 227° |
| 2026-05-04 23:59 | -24.26788 | -44.32634 | 32676 ft | 457 kts | 227° |
| 2026-05-05 00:00 | -24.29040 | -44.35084 | 33149 ft | 456 kts | 226° |
| 2026-05-05 00:00 | -24.30561 | -44.36740 | 33485 ft | 455 kts | 226° |
| 2026-05-05 00:00 | -24.33527 | -44.39970 | 34146 ft | 452 kts | 226° |
| 2026-05-05 00:00 | -24.35753 | -44.42396 | 34603 ft | 450 kts | 226° |
| 2026-05-05 00:01 | -24.37968 | -44.44812 | 35019 ft | 448 kts | 226° |
| 2026-05-05 00:01 | -24.40175 | -44.47220 | 35391 ft | 447 kts | 226° |
| 2026-05-05 00:01 | -24.42377 | -44.49624 | 35773 ft | 446 kts | 226° |
| 2026-05-05 00:01 | -24.44571 | -44.52020 | 36152 ft | 444 kts | 226° |
| 2026-05-05 00:02 | -24.46756 | -44.54407 | 36533 ft | 442 kts | 226° |
| 2026-05-05 00:02 | -24.48932 | -44.56785 | 36898 ft | 441 kts | 227° |
| 2026-05-05 00:02 | -24.51095 | -44.59164 | 37253 ft | 439 kts | 227° |
| 2026-05-05 00:02 | -24.53237 | -44.61547 | 37670 ft | 437 kts | 227° |
| 2026-05-05 00:03 | -24.55362 | -44.63923 | 38025 ft | 435 kts | 227° |
| 2026-05-05 00:03 | -24.57485 | -44.66303 | 38137 ft | 439 kts | 227° |
| 2026-05-05 00:03 | -24.59627 | -44.68704 | 38181 ft | 440 kts | 227° |
| 2026-05-05 00:04 | -24.63907 | -44.73499 | 38174 ft | 436 kts | 227° |
| 2026-05-05 00:04 | -24.68136 | -44.78235 | 38199 ft | 432 kts | 227° |
| 2026-05-05 00:05 | -24.72332 | -44.82937 | 38175 ft | 429 kts | 227° |
| 2026-05-05 00:05 | -24.76503 | -44.87617 | 38181 ft | 428 kts | 227° |
| 2026-05-05 00:06 | -24.80678 | -44.92307 | 38182 ft | 429 kts | 227° |
| 2026-05-05 00:06 | -24.84867 | -44.97018 | 38188 ft | 431 kts | 227° |
| 2026-05-05 00:07 | -24.89066 | -45.01743 | 38182 ft | 432 kts | 227° |
| 2026-05-05 00:07 | -24.93272 | -45.06480 | 38180 ft | 432 kts | 227° |
| 2026-05-05 00:08 | -24.97472 | -45.11217 | 38173 ft | 432 kts | 227° |
| 2026-05-05 00:08 | -25.01674 | -45.15961 | 38175 ft | 432 kts | 227° |
| 2026-05-05 00:09 | -25.05875 | -45.20708 | 38182 ft | 432 kts | 227° |
| 2026-05-05 00:09 | -25.10066 | -45.25450 | 38168 ft | 431 kts | 227° |
| 2026-05-05 00:10 | -25.14251 | -45.30189 | 38185 ft | 430 kts | 227° |
| 2026-05-05 00:10 | -25.18391 | -45.34882 | 38174 ft | 429 kts | 227° |
| 2026-05-05 00:11 | -25.22551 | -45.39603 | 38168 ft | 428 kts | 227° |
| 2026-05-05 00:11 | -25.26691 | -45.44306 | 38166 ft | 427 kts | 227° |
| 2026-05-05 00:12 | -25.30822 | -45.49004 | 38171 ft | 426 kts | 227° |
| 2026-05-05 00:12 | -25.34946 | -45.53699 | 38171 ft | 425 kts | 227° |
| 2026-05-05 00:13 | -25.39064 | -45.58393 | 38165 ft | 425 kts | 227° |
| 2026-05-05 00:13 | -25.43187 | -45.63096 | 38166 ft | 426 kts | 227° |
| 2026-05-05 00:14 | -25.47316 | -45.67811 | 38168 ft | 427 kts | 227° |
| 2026-05-05 00:14 | -25.51446 | -45.72533 | 38164 ft | 427 kts | 227° |
| 2026-05-05 00:15 | -25.55582 | -45.77267 | 38163 ft | 428 kts | 227° |
| 2026-05-05 00:15 | -25.59713 | -45.82000 | 38167 ft | 427 kts | 227° |
| 2026-05-05 00:16 | -25.63832 | -45.86723 | 38166 ft | 426 kts | 227° |
| 2026-05-05 00:16 | -25.67940 | -45.91439 | 38165 ft | 425 kts | 227° |
| 2026-05-05 00:17 | -25.72037 | -45.96147 | 38166 ft | 424 kts | 227° |
| 2026-05-05 00:17 | -25.76127 | -46.00852 | 38165 ft | 423 kts | 227° |
| 2026-05-05 00:18 | -25.80209 | -46.05554 | 38166 ft | 423 kts | 227° |
| 2026-05-05 00:18 | -25.84283 | -46.10253 | 38166 ft | 423 kts | 227° |
| 2026-05-05 00:19 | -25.88363 | -46.14963 | 38166 ft | 423 kts | 227° |
| 2026-05-05 00:19 | -25.92438 | -46.19672 | 38167 ft | 423 kts | 227° |
| 2026-05-05 00:20 | -25.96516 | -46.24391 | 38168 ft | 423 kts | 227° |
| 2026-05-05 00:20 | -26.00596 | -46.29116 | 38166 ft | 424 kts | 227° |
| 2026-05-05 00:21 | -26.04677 | -46.33847 | 38163 ft | 424 kts | 227° |
| 2026-05-05 00:21 | -26.08756 | -46.38581 | 38167 ft | 424 kts | 227° |
| 2026-05-05 00:22 | -26.12837 | -46.43323 | 38162 ft | 424 kts | 227° |
| 2026-05-05 00:22 | -26.16916 | -46.48067 | 38163 ft | 424 kts | 227° |
| 2026-05-05 00:23 | -26.20968 | -46.52786 | 38163 ft | 424 kts | 227° |
| 2026-05-05 00:23 | -26.25041 | -46.57534 | 38164 ft | 424 kts | 227° |
| 2026-05-05 00:24 | -26.29112 | -46.62285 | 38163 ft | 424 kts | 227° |
| 2026-05-05 00:24 | -26.33178 | -46.67035 | 38172 ft | 423 kts | 227° |
| 2026-05-05 00:25 | -26.37237 | -46.71782 | 38156 ft | 422 kts | 227° |
| 2026-05-05 00:25 | -26.41288 | -46.76523 | 38157 ft | 421 kts | 227° |
| 2026-05-05 00:26 | -26.45329 | -46.81254 | 38157 ft | 421 kts | 227° |
| 2026-05-05 00:26 | -26.49362 | -46.85982 | 38157 ft | 420 kts | 227° |
| 2026-05-05 00:27 | -26.53390 | -46.90711 | 38158 ft | 420 kts | 227° |
| 2026-05-05 00:27 | -26.57418 | -46.95443 | 38158 ft | 420 kts | 227° |
| 2026-05-05 00:28 | -26.61441 | -47.00185 | 38155 ft | 420 kts | 228° |
| 2026-05-05 00:28 | -26.65430 | -47.04961 | 38156 ft | 420 kts | 228° |
| 2026-05-05 00:29 | -26.69422 | -47.09749 | 38155 ft | 421 kts | 228° |
| 2026-05-05 00:29 | -26.73416 | -47.14530 | 38165 ft | 421 kts | 228° |
| 2026-05-05 00:30 | -26.77431 | -47.19296 | 38160 ft | 421 kts | 228° |
| 2026-05-05 00:30 | -26.81442 | -47.24056 | 38151 ft | 420 kts | 228° |
| 2026-05-05 00:31 | -26.85438 | -47.28812 | 38154 ft | 419 kts | 228° |
| 2026-05-05 00:31 | -26.89431 | -47.33569 | 38151 ft | 418 kts | 228° |
| 2026-05-05 00:32 | -26.93408 | -47.38330 | 38151 ft | 418 kts | 228° |
| 2026-05-05 00:32 | -26.97379 | -47.43095 | 38149 ft | 418 kts | 228° |
| 2026-05-05 00:33 | -27.01348 | -47.47862 | 38150 ft | 419 kts | 228° |
| 2026-05-05 00:33 | -27.05326 | -47.52644 | 38147 ft | 419 kts | 228° |
| 2026-05-05 00:34 | -27.09305 | -47.57433 | 38145 ft | 419 kts | 228° |
| 2026-05-05 00:34 | -27.13283 | -47.62225 | 38152 ft | 420 kts | 228° |
| 2026-05-05 00:35 | -27.17258 | -47.67019 | 38141 ft | 419 kts | 228° |
| 2026-05-05 00:35 | -27.21228 | -47.71814 | 38144 ft | 418 kts | 228° |
| 2026-05-05 00:36 | -27.25191 | -47.76604 | 38146 ft | 418 kts | 228° |
| 2026-05-05 00:36 | -27.29118 | -47.81358 | 38153 ft | 417 kts | 228° |
| 2026-05-05 00:37 | -27.33063 | -47.86138 | 38138 ft | 417 kts | 228° |
| 2026-05-05 00:37 | -27.37010 | -47.90925 | 38142 ft | 417 kts | 228° |
| 2026-05-05 00:38 | -27.40942 | -47.95709 | 38138 ft | 416 kts | 228° |
| 2026-05-05 00:38 | -27.44863 | -48.00517 | 38136 ft | 416 kts | 228° |
| 2026-05-05 00:39 | -27.48778 | -48.05325 | 38137 ft | 416 kts | 228° |
| 2026-05-05 00:39 | -27.52036 | -48.09328 | 38150 ft | 416 kts | 228° |
| 2026-05-05 00:40 | -27.56611 | -48.14955 | 38129 ft | 416 kts | 228° |
| 2026-05-05 00:40 | -27.59859 | -48.18953 | 38122 ft | 416 kts | 228° |
| 2026-05-05 00:41 | -27.63762 | -48.23763 | 38103 ft | 416 kts | 228° |
| 2026-05-05 00:41 | -27.67664 | -48.28577 | 38113 ft | 416 kts | 228° |
| 2026-05-05 00:42 | -27.71569 | -48.33399 | 38108 ft | 416 kts | 228° |
| 2026-05-05 00:42 | -27.75477 | -48.38226 | 38107 ft | 417 kts | 228° |
| 2026-05-05 00:43 | -27.79385 | -48.43060 | 38107 ft | 417 kts | 228° |
| 2026-05-05 00:43 | -27.83297 | -48.47905 | 38104 ft | 418 kts | 228° |
| 2026-05-05 00:44 | -27.87213 | -48.52760 | 38110 ft | 418 kts | 228° |
| 2026-05-05 00:44 | -27.91137 | -48.57631 | 38113 ft | 419 kts | 228° |
| 2026-05-05 00:45 | -27.95038 | -48.62479 | 38115 ft | 420 kts | 229° |
| 2026-05-05 00:45 | -27.98966 | -48.67367 | 38118 ft | 420 kts | 229° |
| 2026-05-05 00:46 | -28.02893 | -48.72260 | 38107 ft | 420 kts | 229° |
| 2026-05-05 00:46 | -28.06817 | -48.77155 | 38112 ft | 420 kts | 229° |
| 2026-05-05 00:47 | -28.10742 | -48.82056 | 38110 ft | 420 kts | 229° |
| 2026-05-05 00:47 | -28.14662 | -48.86956 | 38112 ft | 420 kts | 229° |
| 2026-05-05 00:48 | -28.18591 | -48.91875 | 38099 ft | 421 kts | 229° |
| 2026-05-05 00:48 | -28.22511 | -48.96788 | 38101 ft | 420 kts | 229° |
| 2026-05-05 00:49 | -28.26401 | -49.01718 | 38090 ft | 419 kts | 229° |
| 2026-05-05 00:49 | -28.30305 | -49.06624 | 38097 ft | 418 kts | 228° |
| 2026-05-05 00:50 | -28.34245 | -49.11475 | 38105 ft | 418 kts | 228° |
| 2026-05-05 00:50 | -28.38179 | -49.16329 | 38099 ft | 418 kts | 228° |
| 2026-05-05 00:51 | -28.42108 | -49.21196 | 38099 ft | 418 kts | 229° |
| 2026-05-05 00:51 | -28.46006 | -49.26031 | 38096 ft | 418 kts | 229° |
| 2026-05-05 00:52 | -28.49926 | -49.30915 | 38098 ft | 418 kts | 229° |
| 2026-05-05 00:52 | -28.53848 | -49.35819 | 38093 ft | 419 kts | 229° |
| 2026-05-05 00:53 | -28.57772 | -49.40729 | 38092 ft | 419 kts | 229° |
| 2026-05-05 00:53 | -28.61699 | -49.45647 | 38089 ft | 420 kts | 229° |
| 2026-05-05 00:54 | -28.65633 | -49.50580 | 38104 ft | 421 kts | 229° |
| 2026-05-05 00:54 | -28.69568 | -49.55522 | 38092 ft | 421 kts | 229° |
| 2026-05-05 00:55 | -28.73506 | -49.60472 | 38099 ft | 422 kts | 229° |
| 2026-05-05 00:55 | -28.77451 | -49.65437 | 38102 ft | 422 kts | 229° |
| 2026-05-05 00:56 | -28.81364 | -49.70368 | 38094 ft | 422 kts | 229° |
| 2026-05-05 00:56 | -28.85300 | -49.75334 | 38091 ft | 421 kts | 229° |
| 2026-05-05 00:57 | -28.89227 | -49.80294 | 38106 ft | 421 kts | 230° |
| 2026-05-05 00:57 | -28.93215 | -49.85196 | 38094 ft | 421 kts | 228° |
| 2026-05-05 00:58 | -28.97284 | -49.90015 | 38100 ft | 421 kts | 228° |
| 2026-05-05 00:58 | -29.01350 | -49.94837 | 38097 ft | 421 kts | 228° |
| 2026-05-05 00:59 | -29.05401 | -49.99671 | 38116 ft | 421 kts | 228° |
| 2026-05-05 00:59 | -29.09445 | -50.04518 | 38100 ft | 422 kts | 228° |
| 2026-05-05 01:00 | -29.13492 | -50.09374 | 38118 ft | 422 kts | 228° |
| 2026-05-05 01:00 | -29.17542 | -50.14239 | 38124 ft | 422 kts | 228° |
| 2026-05-05 01:01 | -29.21592 | -50.19108 | 38123 ft | 422 kts | 228° |
| 2026-05-05 01:01 | -29.25639 | -50.23981 | 38122 ft | 422 kts | 229° |
| 2026-05-05 01:02 | -29.29683 | -50.28856 | 38097 ft | 422 kts | 229° |
| 2026-05-05 01:02 | -29.33700 | -50.33704 | 38117 ft | 422 kts | 229° |
| 2026-05-05 01:03 | -29.37742 | -50.38589 | 38109 ft | 422 kts | 229° |
| 2026-05-05 01:03 | -29.41783 | -50.43478 | 38080 ft | 423 kts | 229° |
| 2026-05-05 01:04 | -29.45824 | -50.48375 | 38102 ft | 423 kts | 229° |
| 2026-05-05 01:04 | -29.51895 | -50.55741 | 38096 ft | 423 kts | 229° |
| 2026-05-05 01:05 | -29.55890 | -50.60703 | 38075 ft | 423 kts | 230° |
| 2026-05-05 01:05 | -29.59827 | -50.65718 | 38084 ft | 423 kts | 230° |
| 2026-05-05 01:06 | -29.63761 | -50.70732 | 38074 ft | 422 kts | 230° |
| 2026-05-05 01:06 | -29.67697 | -50.75738 | 38077 ft | 422 kts | 230° |
| 2026-05-05 01:07 | -29.71631 | -50.80741 | 38066 ft | 421 kts | 230° |
| 2026-05-05 01:07 | -29.75560 | -50.85745 | 38066 ft | 421 kts | 230° |
| 2026-05-05 01:08 | -29.79485 | -50.90749 | 38051 ft | 421 kts | 230° |
| 2026-05-05 01:08 | -29.83408 | -50.95757 | 38049 ft | 421 kts | 230° |
| 2026-05-05 01:09 | -29.87330 | -51.00771 | 38051 ft | 422 kts | 230° |
| 2026-05-05 01:09 | -29.91259 | -51.05800 | 38049 ft | 422 kts | 230° |
| 2026-05-05 01:10 | -29.95192 | -51.10841 | 38047 ft | 423 kts | 230° |
| 2026-05-05 01:10 | -29.98740 | -51.16211 | 38065 ft | 421 kts | 239° |
| 2026-05-05 01:11 | -30.01550 | -51.22128 | 38045 ft | 421 kts | 246° |
| 2026-05-05 01:11 | -30.03713 | -51.28392 | 38042 ft | 421 kts | 248° |
| 2026-05-05 01:12 | -30.05799 | -51.34656 | 38050 ft | 421 kts | 248° |
| 2026-05-05 01:12 | -30.07915 | -51.40963 | 38048 ft | 421 kts | 248° |
| 2026-05-05 01:13 | -30.10042 | -51.47263 | 38050 ft | 421 kts | 248° |
| 2026-05-05 01:13 | -30.12171 | -51.53565 | 38059 ft | 421 kts | 248° |
| 2026-05-05 01:14 | -30.14296 | -51.59865 | 38055 ft | 421 kts | 248° |
| 2026-05-05 01:14 | -30.16418 | -51.66171 | 38053 ft | 421 kts | 248° |
| 2026-05-05 01:15 | -30.18532 | -51.72467 | 38053 ft | 420 kts | 248° |
| 2026-05-05 01:15 | -30.20641 | -51.78759 | 38052 ft | 419 kts | 248° |
| 2026-05-05 01:16 | -30.22747 | -51.85048 | 38060 ft | 419 kts | 248° |
| 2026-05-05 01:16 | -30.24844 | -51.91328 | 38060 ft | 418 kts | 248° |
| 2026-05-05 01:17 | -30.26936 | -51.97601 | 38059 ft | 418 kts | 248° |
| 2026-05-05 01:17 | -30.29026 | -52.03870 | 38058 ft | 417 kts | 248° |
| 2026-05-05 01:18 | -30.31118 | -52.10128 | 38059 ft | 417 kts | 248° |
| 2026-05-05 01:18 | -30.33205 | -52.16384 | 38059 ft | 416 kts | 249° |
| 2026-05-05 01:19 | -30.35287 | -52.22639 | 38061 ft | 416 kts | 249° |
| 2026-05-05 01:19 | -30.37367 | -52.28897 | 38063 ft | 417 kts | 249° |
| 2026-05-05 01:20 | -30.39441 | -52.35168 | 38058 ft | 417 kts | 249° |
| 2026-05-05 01:20 | -30.41511 | -52.41449 | 38058 ft | 417 kts | 249° |
| 2026-05-05 01:21 | -30.43578 | -52.47730 | 38052 ft | 417 kts | 249° |
| 2026-05-05 01:21 | -30.45629 | -52.53974 | 38069 ft | 417 kts | 249° |
| 2026-05-05 01:22 | -30.47693 | -52.60265 | 38056 ft | 418 kts | 249° |
| 2026-05-05 01:22 | -30.49753 | -52.66558 | 38064 ft | 417 kts | 249° |
| 2026-05-05 01:23 | -30.51820 | -52.72844 | 38058 ft | 417 kts | 249° |
| 2026-05-05 01:23 | -30.53888 | -52.79125 | 38064 ft | 417 kts | 249° |
| 2026-05-05 01:24 | -30.55952 | -52.85408 | 38054 ft | 417 kts | 249° |
| 2026-05-05 01:24 | -30.58011 | -52.91694 | 38055 ft | 417 kts | 249° |
| 2026-05-05 01:25 | -30.60065 | -52.97977 | 38051 ft | 416 kts | 249° |
| 2026-05-05 01:25 | -30.62114 | -53.04258 | 38050 ft | 416 kts | 249° |
| 2026-05-05 01:26 | -30.64161 | -53.10538 | 38052 ft | 416 kts | 249° |
| 2026-05-05 01:26 | -30.66188 | -53.16832 | 38050 ft | 416 kts | 249° |
| 2026-05-05 01:27 | -30.68187 | -53.23127 | 38049 ft | 415 kts | 249° |
| 2026-05-05 01:27 | -30.70185 | -53.29423 | 38061 ft | 415 kts | 249° |
| 2026-05-05 01:28 | -30.71845 | -53.34653 | 38047 ft | 415 kts | 249° |
| 2026-05-05 01:28 | -30.73858 | -53.40935 | 38050 ft | 415 kts | 249° |
| 2026-05-05 01:29 | -30.75956 | -53.47174 | 38048 ft | 414 kts | 248° |
| 2026-05-05 01:29 | -30.78063 | -53.53406 | 38047 ft | 414 kts | 248° |
| 2026-05-05 01:30 | -30.80159 | -53.59651 | 38052 ft | 414 kts | 248° |
| 2026-05-05 01:30 | -30.82244 | -53.65895 | 38052 ft | 414 kts | 249° |
| 2026-05-05 01:31 | -30.84328 | -53.72149 | 38045 ft | 414 kts | 249° |
| 2026-05-05 01:31 | -30.86407 | -53.78402 | 38050 ft | 414 kts | 249° |
| 2026-05-05 01:32 | -30.88484 | -53.84658 | 38044 ft | 414 kts | 249° |
| 2026-05-05 01:32 | -30.90559 | -53.90921 | 38050 ft | 414 kts | 249° |
| 2026-05-05 01:33 | -30.92619 | -53.97150 | 38054 ft | 415 kts | 249° |
| 2026-05-05 01:33 | -30.94688 | -54.03418 | 38054 ft | 415 kts | 249° |
| 2026-05-05 01:34 | -30.96773 | -54.09683 | 38039 ft | 415 kts | 246° |
| 2026-05-05 01:34 | -30.99733 | -54.15441 | 38053 ft | 415 kts | 236° |
| 2026-05-05 01:35 | -31.03516 | -54.20548 | 38045 ft | 419 kts | 226° |
| 2026-05-05 01:35 | -31.07814 | -54.25141 | 38050 ft | 419 kts | 226° |
| 2026-05-05 01:36 | -31.12130 | -54.29723 | 38039 ft | 419 kts | 226° |
| 2026-05-05 01:36 | -31.16418 | -54.34329 | 38041 ft | 419 kts | 226° |
| 2026-05-05 01:37 | -31.20692 | -54.38950 | 38039 ft | 419 kts | 226° |
| 2026-05-05 01:37 | -31.24962 | -54.43577 | 38042 ft | 418 kts | 226° |
| 2026-05-05 01:38 | -31.29230 | -54.48209 | 38056 ft | 418 kts | 226° |
| 2026-05-05 01:38 | -31.33495 | -54.52842 | 38046 ft | 419 kts | 226° |
| 2026-05-05 01:39 | -31.37769 | -54.57492 | 38039 ft | 419 kts | 226° |
| 2026-05-05 01:39 | -31.42009 | -54.62109 | 38034 ft | 419 kts | 226° |
| 2026-05-05 01:40 | -31.46282 | -54.66751 | 38034 ft | 419 kts | 226° |
| 2026-05-05 01:40 | -31.50586 | -54.71372 | 38035 ft | 419 kts | 226° |
| 2026-05-05 01:41 | -31.54892 | -54.75994 | 38028 ft | 420 kts | 226° |
| 2026-05-05 01:41 | -31.59193 | -54.80623 | 38032 ft | 420 kts | 226° |
| 2026-05-05 01:42 | -31.63491 | -54.85258 | 38056 ft | 420 kts | 226° |
| 2026-05-05 01:42 | -31.67789 | -54.89901 | 38027 ft | 420 kts | 226° |
| 2026-05-05 01:43 | -31.72087 | -54.94550 | 38030 ft | 420 kts | 226° |
| 2026-05-05 01:43 | -31.76384 | -54.99204 | 38022 ft | 420 kts | 226° |
| 2026-05-05 01:44 | -31.80677 | -55.03860 | 38025 ft | 420 kts | 226° |
| 2026-05-05 01:44 | -31.84971 | -55.08524 | 38025 ft | 420 kts | 226° |
| 2026-05-05 01:45 | -31.89257 | -55.13185 | 38028 ft | 420 kts | 226° |
| 2026-05-05 01:45 | -31.93545 | -55.17853 | 38023 ft | 420 kts | 226° |
| 2026-05-05 01:46 | -31.97830 | -55.22525 | 38057 ft | 420 kts | 227° |
| 2026-05-05 01:46 | -32.02116 | -55.27205 | 38026 ft | 420 kts | 227° |
| 2026-05-05 01:47 | -32.06371 | -55.31856 | 38018 ft | 420 kts | 227° |
| 2026-05-05 01:47 | -32.10649 | -55.36540 | 38018 ft | 419 kts | 227° |
| 2026-05-05 01:48 | -32.14920 | -55.41222 | 38015 ft | 419 kts | 227° |
| 2026-05-05 01:48 | -32.19189 | -55.45908 | 38017 ft | 419 kts | 227° |
| 2026-05-05 01:49 | -32.23457 | -55.50599 | 38017 ft | 419 kts | 227° |
| 2026-05-05 01:49 | -32.27723 | -55.55294 | 38014 ft | 419 kts | 227° |
| 2026-05-05 01:50 | -32.31986 | -55.59992 | 38029 ft | 419 kts | 227° |
| 2026-05-05 01:50 | -32.36250 | -55.64698 | 38013 ft | 420 kts | 227° |
| 2026-05-05 01:51 | -32.40516 | -55.69412 | 38007 ft | 420 kts | 227° |
| 2026-05-05 01:51 | -32.44778 | -55.74128 | 38009 ft | 420 kts | 227° |
| 2026-05-05 01:52 | -32.49038 | -55.78849 | 38011 ft | 419 kts | 227° |
| 2026-05-05 01:52 | -32.53300 | -55.83578 | 38005 ft | 419 kts | 227° |
| 2026-05-05 01:53 | -32.57556 | -55.88307 | 38008 ft | 420 kts | 227° |
| 2026-05-05 01:53 | -32.61818 | -55.93049 | 38004 ft | 420 kts | 227° |
| 2026-05-05 01:54 | -32.66073 | -55.97789 | 38020 ft | 420 kts | 227° |
| 2026-05-05 01:54 | -32.70328 | -56.02537 | 37990 ft | 420 kts | 227° |
| 2026-05-05 01:55 | -32.74579 | -56.07286 | 37989 ft | 420 kts | 227° |
| 2026-05-05 01:55 | -32.78828 | -56.12040 | 37986 ft | 420 kts | 227° |
| 2026-05-05 01:56 | -32.83076 | -56.16799 | 38006 ft | 419 kts | 227° |
| 2026-05-05 01:56 | -32.87316 | -56.21557 | 38008 ft | 419 kts | 228° |
| 2026-05-05 01:57 | -32.91554 | -56.26318 | 38005 ft | 419 kts | 228° |
| 2026-05-05 01:57 | -32.95766 | -56.31056 | 38008 ft | 419 kts | 228° |
| 2026-05-05 01:58 | -33.00030 | -56.35865 | 38013 ft | 419 kts | 228° |
| 2026-05-05 01:58 | -33.04224 | -56.40623 | 37996 ft | 419 kts | 228° |
| 2026-05-05 01:59 | -33.08449 | -56.45424 | 37991 ft | 420 kts | 228° |
| 2026-05-05 01:59 | -33.12673 | -56.50230 | 37990 ft | 420 kts | 228° |
| 2026-05-05 02:00 | -33.16896 | -56.55039 | 37989 ft | 419 kts | 228° |
| 2026-05-05 02:00 | -33.21115 | -56.59847 | 37991 ft | 419 kts | 228° |
| 2026-05-05 02:01 | -33.25337 | -56.64665 | 37989 ft | 419 kts | 228° |
| 2026-05-05 02:01 | -33.29555 | -56.69486 | 37986 ft | 420 kts | 228° |
| 2026-05-05 02:02 | -33.33773 | -56.74313 | 37986 ft | 420 kts | 228° |
| 2026-05-05 02:02 | -33.37989 | -56.79145 | 37988 ft | 420 kts | 229° |
| 2026-05-05 02:03 | -33.42202 | -56.83980 | 37985 ft | 420 kts | 229° |
| 2026-05-05 02:03 | -33.46415 | -56.88823 | 37980 ft | 420 kts | 229° |
| 2026-05-05 02:04 | -33.50599 | -56.93638 | 37985 ft | 420 kts | 229° |
| 2026-05-05 02:04 | -33.54808 | -56.98490 | 37981 ft | 420 kts | 229° |
| 2026-05-05 02:05 | -33.59014 | -57.03346 | 37989 ft | 420 kts | 229° |
| 2026-05-05 02:05 | -33.63216 | -57.08204 | 37988 ft | 420 kts | 229° |
| 2026-05-05 02:06 | -33.67419 | -57.13069 | 37983 ft | 420 kts | 229° |
| 2026-05-05 02:06 | -33.71627 | -57.17948 | 37987 ft | 420 kts | 229° |
| 2026-05-05 02:07 | -33.75845 | -57.22844 | 37940 ft | 412 kts | 229° |
| 2026-05-05 02:07 | -33.77845 | -57.25162 | 37955 ft | 400 kts | 229° |
| 2026-05-05 02:07 | -33.79852 | -57.27497 | 37986 ft | 401 kts | 229° |
| 2026-05-05 02:08 | -33.81855 | -57.29832 | 37885 ft | 405 kts | 229° |
| 2026-05-05 02:08 | -33.83906 | -57.32228 | 37192 ft | 414 kts | 229° |
| 2026-05-05 02:08 | -33.85980 | -57.34646 | 36366 ft | 416 kts | 229° |
| 2026-05-05 02:08 | -33.88060 | -57.37070 | 35555 ft | 417 kts | 229° |
| 2026-05-05 02:09 | -33.90150 | -57.39507 | 34712 ft | 420 kts | 229° |
| 2026-05-05 02:09 | -33.92252 | -57.41961 | 33862 ft | 422 kts | 229° |
| 2026-05-05 02:09 | -33.94370 | -57.44437 | 32874 ft | 426 kts | 229° |
| 2026-05-05 02:09 | -33.96503 | -57.46931 | 31924 ft | 429 kts | 229° |
| 2026-05-05 02:10 | -33.98647 | -57.49441 | 30990 ft | 431 kts | 229° |
| 2026-05-05 02:10 | -34.00802 | -57.51964 | 30083 ft | 433 kts | 229° |
| 2026-05-05 02:10 | -34.02969 | -57.54502 | 29099 ft | 435 kts | 229° |
| 2026-05-05 02:10 | -34.05131 | -57.57035 | 28284 ft | 432 kts | 229° |
| 2026-05-05 02:11 | -34.07277 | -57.59550 | 27544 ft | 428 kts | 229° |
| 2026-05-05 02:11 | -34.09397 | -57.62039 | 26799 ft | 424 kts | 229° |
| 2026-05-05 02:11 | -34.11500 | -57.64510 | 26094 ft | 420 kts | 229° |
| 2026-05-05 02:11 | -34.13585 | -57.66962 | 25411 ft | 417 kts | 229° |
| 2026-05-05 02:12 | -34.15657 | -57.69400 | 24735 ft | 414 kts | 229° |
| 2026-05-05 02:12 | -34.19745 | -57.74219 | 23398 ft | 408 kts | 229° |
| 2026-05-05 02:12 | -34.21745 | -57.76579 | 22649 ft | 406 kts | 229° |
| 2026-05-05 02:13 | -34.23756 | -57.78954 | 21914 ft | 403 kts | 229° |
| 2026-05-05 02:13 | -34.25752 | -57.81311 | 21178 ft | 400 kts | 229° |
| 2026-05-05 02:13 | -34.27737 | -57.83660 | 20467 ft | 398 kts | 229° |
| 2026-05-05 02:13 | -34.29709 | -57.85993 | 19856 ft | 394 kts | 229° |
| 2026-05-05 02:14 | -34.31653 | -57.88294 | 19347 ft | 388 kts | 229° |
| 2026-05-05 02:14 | -34.33565 | -57.90559 | 18865 ft | 382 kts | 229° |
| 2026-05-05 02:14 | -34.35448 | -57.92791 | 18376 ft | 376 kts | 229° |
| 2026-05-05 02:14 | -34.37303 | -57.94991 | 17835 ft | 371 kts | 229° |
| 2026-05-05 02:15 | -34.39128 | -57.97174 | 17283 ft | 366 kts | 230° |
| 2026-05-05 02:15 | -34.40740 | -57.99506 | 16758 ft | 358 kts | 236° |
| 2026-05-05 02:15 | -34.42135 | -58.01981 | 16231 ft | 353 kts | 240° |
| 2026-05-05 02:15 | -34.42985 | -58.03694 | 15891 ft | 350 kts | 243° |
| 2026-05-05 02:16 | -34.44396 | -58.07158 | 15200 ft | 344 kts | 246° |
| 2026-05-05 02:16 | -34.45065 | -58.08888 | 14884 ft | 341 kts | 246° |
| 2026-05-05 02:16 | -34.46059 | -58.11482 | 14389 ft | 338 kts | 246° |
| 2026-05-05 02:16 | -34.47045 | -58.14056 | 13913 ft | 335 kts | 245° |
| 2026-05-05 02:17 | -34.48026 | -58.16611 | 13393 ft | 333 kts | 245° |
| 2026-05-05 02:17 | -34.49002 | -58.19146 | 12858 ft | 330 kts | 245° |
| 2026-05-05 02:17 | -34.49971 | -58.21660 | 12334 ft | 328 kts | 245° |
| 2026-05-05 02:17 | -34.50898 | -58.24062 | 11768 ft | 302 kts | 245° |
| 2026-05-05 02:18 | -34.51756 | -58.26285 | 11260 ft | 282 kts | 245° |
| 2026-05-05 02:18 | -34.52566 | -58.28383 | 10871 ft | 267 kts | 245° |
| 2026-05-05 02:18 | -34.53350 | -58.30417 | 10659 ft | 266 kts | 245° |
| 2026-05-05 02:18 | -34.54106 | -58.32377 | 10491 ft | 246 kts | 245° |
| 2026-05-05 02:19 | -34.54805 | -58.34192 | 10406 ft | 233 kts | 245° |
| 2026-05-05 02:19 | -34.55486 | -58.35960 | 10303 ft | 232 kts | 245° |
| 2026-05-05 02:19 | -34.56190 | -58.37791 | 10232 ft | 247 kts | 245° |
| 2026-05-05 02:19 | -34.56928 | -58.39709 | 10118 ft | 252 kts | 245° |
| 2026-05-05 02:20 | -34.57661 | -58.41616 | 10012 ft | 246 kts | 245° |
| 2026-05-05 02:20 | -34.58383 | -58.43495 | 9704 ft | 245 kts | 245° |
| 2026-05-05 02:20 | -34.59101 | -58.45363 | 9407 ft | 243 kts | 245° |
| 2026-05-05 02:20 | -34.59811 | -58.47213 | 9096 ft | 241 kts | 246° |
| 2026-05-05 02:21 | -34.60518 | -58.49055 | 8828 ft | 241 kts | 246° |
| 2026-05-05 02:21 | -34.61218 | -58.50881 | 8503 ft | 243 kts | 246° |
| 2026-05-05 02:21 | -34.61944 | -58.52776 | 8212 ft | 252 kts | 246° |
| 2026-05-05 02:21 | -34.62702 | -58.54758 | 7893 ft | 258 kts | 246° |
| 2026-05-05 02:22 | -34.63448 | -58.56704 | 7580 ft | 258 kts | 246° |
| 2026-05-05 02:22 | -34.64201 | -58.58673 | 7315 ft | 255 kts | 246° |
| 2026-05-05 02:22 | -34.64942 | -58.60608 | 7127 ft | 249 kts | 247° |
| 2026-05-05 02:22 | -34.65656 | -58.62475 | 6643 ft | 244 kts | 247° |
| 2026-05-05 02:23 | -34.66385 | -58.64389 | 6220 ft | 250 kts | 248° |
| 2026-05-05 02:23 | -34.67102 | -58.66266 | 6079 ft | 246 kts | 248° |
| 2026-05-05 02:23 | -34.67825 | -58.68164 | 5775 ft | 248 kts | 248° |
| 2026-05-05 02:23 | -34.68549 | -58.70063 | 5467 ft | 247 kts | 248° |
| 2026-05-05 02:24 | -34.69270 | -58.71955 | 5175 ft | 247 kts | 248° |
| 2026-05-05 02:24 | -34.69990 | -58.73843 | 4876 ft | 246 kts | 248° |
| 2026-05-05 02:24 | -34.70707 | -58.75728 | 4580 ft | 246 kts | 248° |
| 2026-05-05 02:24 | -34.71422 | -58.77609 | 4276 ft | 241 kts | 248° |
| 2026-05-05 02:25 | -34.72186 | -58.79335 | 3964 ft | 224 kts | 231° |
| 2026-05-05 02:25 | -34.73411 | -58.80359 | 3883 ft | 211 kts | 202° |
| 2026-05-05 02:25 | -34.74816 | -58.80621 | 3861 ft | 203 kts | 180° |
| 2026-05-05 02:25 | -34.76190 | -58.80283 | 3730 ft | 206 kts | 153° |
| 2026-05-05 02:26 | -34.77088 | -58.79050 | 3609 ft | 187 kts | 113° |
| 2026-05-05 02:26 | -34.77547 | -58.77637 | 3535 ft | 173 kts | 108° |
| 2026-05-05 02:26 | -34.77898 | -58.76294 | 3385 ft | 163 kts | 104° |
| 2026-05-05 02:26 | -34.78182 | -58.74993 | 3263 ft | 161 kts | 102° |
| 2026-05-05 02:27 | -34.78440 | -58.73657 | 3081 ft | 162 kts | 101° |
| 2026-05-05 02:27 | -34.78719 | -58.72331 | 2862 ft | 161 kts | 103° |
| 2026-05-05 02:27 | -34.79041 | -58.71038 | 2641 ft | 159 kts | 102° |
| 2026-05-05 02:27 | -34.79314 | -58.69740 | 2424 ft | 157 kts | 99° |
| 2026-05-05 02:28 | -34.79557 | -58.68446 | 2223 ft | 157 kts | 98° |
| 2026-05-05 02:28 | -34.79791 | -58.67147 | 1990 ft | 157 kts | 98° |
| 2026-05-05 02:28 | -34.80023 | -58.65856 | 1780 ft | 155 kts | 98° |
| 2026-05-05 02:28 | -34.80252 | -58.64581 | 1575 ft | 154 kts | 97° |
| 2026-05-05 02:29 | -34.80478 | -58.63315 | 1372 ft | 152 kts | 98° |
| 2026-05-05 02:29 | -34.80702 | -58.62064 | 1166 ft | 151 kts | 98° |
| 2026-05-05 02:29 | -34.80923 | -58.60825 | 972 ft | 149 kts | 98° |
| 2026-05-05 02:29 | -34.81144 | -58.59597 | 787 ft | 148 kts | 99° |
| 2026-05-05 02:30 | -34.81371 | -58.58391 | 562 ft | 144 kts | 99° |
| 2026-05-05 02:30 | -34.81572 | -58.57202 | 369 ft | 142 kts | 99° |
| 2026-05-05 02:30 | -34.81778 | -58.56030 | 238 ft | 143 kts | 101° |
| 2026-05-05 02:30 | -34.81991 | -58.54845 | 81 ft | 142 kts | 101° |
| 2026-05-05 02:31 | -34.82176 | -58.53829 | 74 ft | 83 kts | 102° |
| 2026-05-05 02:31 | -34.82267 | -58.53317 | 66 ft | 54 kts | 103° |
| 2026-05-05 02:31 | -34.82337 | -58.52935 | 71 ft | 18 kts | 102° |
| 2026-05-05 02:31 | -34.82339 | -58.52918 | 66 ft | 1 kts | 94° |
| 2026-05-05 02:32 | -34.82336 | -58.52911 | 67 ft | 1 kts | 67° |
| 2026-05-05 02:32 | -34.82325 | -58.52902 | 64 ft | 3 kts | 26° |
| 2026-05-05 02:32 | -34.82261 | -58.52905 | 68 ft | 15 kts | 352° |
| 2026-05-05 02:32 | -34.82116 | -58.52945 | 68 ft | 24 kts | 343° |
| 2026-05-05 02:33 | -34.82015 | -58.53088 | 67 ft | 27 kts | 292° |
| 2026-05-05 02:33 | -34.81965 | -58.53318 | 69 ft | 30 kts | 284° |
| 2026-05-05 02:33 | -34.81933 | -58.53475 | 66 ft | 19 kts | 282° |
| 2026-05-05 02:33 | -34.81855 | -58.53639 | 65 ft | 27 kts | 320° |
| 2026-05-05 02:34 | -34.81685 | -58.53787 | 67 ft | 33 kts | 309° |